sensor_id;sensor_type;location;lat;lon;timestamp;P1;durP1;ratioP1;P2;durP2;ratioP2
81936;SDS011;71432;56.558;9.036;2023-07-20T00:01:19;2.83;;;0.70;;
81936;SDS011;71432;56.558;9.036;2023-07-20T00:03:44;3.87;;;0.80;;
81936;SDS011;71432;56.558;9.036;2023-07-20T00:06:10;1.67;;;0.80;;
81936;SDS011;71432;56.558;9.036;2023-07-20T00:08:35;2.90;;;0.80;;
81936;SDS011;71432;56.558;9.036;2023-07-20T00:11:01;2.13;;;0.73;;
81936;SDS011;71432;56.558;9.036;2023-07-20T00:13:26;2.33;;;0.90;;
81936;SDS011;71432;56.558;9.036;2023-07-20T00:15:52;1.90;;;0.65;;
81936;SDS011;71432;56.558;9.036;2023-07-20T00:18:17;0.88;;;0.45;;
81936;SDS011;71432;56.558;9.036;2023-07-20T00:20:46;2.65;;;0.82;;
81936;SDS011;71432;56.558;9.036;2023-07-20T00:23:11;1.40;;;0.80;;
81936;SDS011;71432;56.558;9.036;2023-07-20T00:25:37;1.33;;;0.60;;
81936;SDS011;71432;56.558;9.036;2023-07-20T00:28:02;1.75;;;0.80;;
81936;SDS011;71432;56.558;9.036;2023-07-20T00:30:28;2.83;;;0.80;;
81936;SDS011;71432;56.558;9.036;2023-07-20T00:32:53;3.07;;;0.90;;
81936;SDS011;71432;56.558;9.036;2023-07-20T00:35:18;2.73;;;1.13;;
81936;SDS011;71432;56.558;9.036;2023-07-20T00:37:44;1.95;;;0.85;;
81936;SDS011;71432;56.558;9.036;2023-07-20T00:40:09;1.55;;;0.93;;
81936;SDS011;71432;56.558;9.036;2023-07-20T00:42:35;1.85;;;0.73;;
81936;SDS011;71432;56.558;9.036;2023-07-20T00:45:00;1.60;;;0.70;;
81936;SDS011;71432;56.558;9.036;2023-07-20T00:47:26;2.58;;;0.60;;
81936;SDS011;71432;56.558;9.036;2023-07-20T00:49:52;1.63;;;0.70;;
81936;SDS011;71432;56.558;9.036;2023-07-20T00:52:18;1.52;;;0.68;;
81936;SDS011;71432;56.558;9.036;2023-07-20T00:54:45;2.25;;;0.70;;
81936;SDS011;71432;56.558;9.036;2023-07-20T00:59:39;1.30;;;0.65;;
81936;SDS011;71432;56.558;9.036;2023-07-20T01:02:04;2.35;;;0.90;;
81936;SDS011;71432;56.558;9.036;2023-07-20T01:04:30;1.20;;;0.80;;
81936;SDS011;71432;56.558;9.036;2023-07-20T01:07:01;1.80;;;0.88;;
81936;SDS011;71432;56.558;9.036;2023-07-20T01:12:26;2.03;;;0.68;;
81936;SDS011;71432;56.558;9.036;2023-07-20T01:14:55;3.17;;;0.90;;
81936;SDS011;71432;56.558;9.036;2023-07-20T01:17:20;1.58;;;0.68;;
81936;SDS011;71432;56.558;9.036;2023-07-20T01:19:46;2.77;;;0.80;;
81936;SDS011;71432;56.558;9.036;2023-07-20T01:22:30;2.28;;;0.70;;
81936;SDS011;71432;56.558;9.036;2023-07-20T01:31:38;1.33;;;0.70;;
81936;SDS011;71432;56.558;9.036;2023-07-20T01:34:06;1.13;;;0.60;;
81936;SDS011;71432;56.558;9.036;2023-07-20T01:36:35;1.38;;;0.70;;
81936;SDS011;71432;56.558;9.036;2023-07-20T01:39:02;2.05;;;0.70;;
81936;SDS011;71432;56.558;9.036;2023-07-20T01:41:29;3.85;;;1.02;;
81936;SDS011;71432;56.558;9.036;2023-07-20T01:43:57;1.60;;;0.80;;
81936;SDS011;71432;56.558;9.036;2023-07-20T01:46:23;1.65;;;1.02;;
81936;SDS011;71432;56.558;9.036;2023-07-20T01:48:48;1.70;;;0.75;;
81936;SDS011;71432;56.558;9.036;2023-07-20T01:51:15;2.05;;;0.98;;
81936;SDS011;71432;56.558;9.036;2023-07-20T01:53:42;1.58;;;0.77;;
81936;SDS011;71432;56.558;9.036;2023-07-20T01:56:08;2.97;;;0.85;;
81936;SDS011;71432;56.558;9.036;2023-07-20T01:58:33;1.98;;;0.77;;
81936;SDS011;71432;56.558;9.036;2023-07-20T02:00:58;1.50;;;0.60;;
81936;SDS011;71432;56.558;9.036;2023-07-20T02:03:24;2.03;;;0.88;;
81936;SDS011;71432;56.558;9.036;2023-07-20T02:05:51;1.35;;;0.47;;
81936;SDS011;71432;56.558;9.036;2023-07-20T02:08:17;1.33;;;0.70;;
81936;SDS011;71432;56.558;9.036;2023-07-20T02:10:45;2.10;;;0.93;;
81936;SDS011;71432;56.558;9.036;2023-07-20T02:13:13;1.45;;;0.80;;
81936;SDS011;71432;56.558;9.036;2023-07-20T02:15:39;1.17;;;0.85;;
81936;SDS011;71432;56.558;9.036;2023-07-20T02:18:05;2.83;;;0.90;;
81936;SDS011;71432;56.558;9.036;2023-07-20T02:20:31;1.60;;;0.70;;
81936;SDS011;71432;56.558;9.036;2023-07-20T02:22:56;2.67;;;0.85;;
81936;SDS011;71432;56.558;9.036;2023-07-20T02:25:21;2.40;;;0.70;;
81936;SDS011;71432;56.558;9.036;2023-07-20T02:27:47;2.93;;;0.90;;
81936;SDS011;71432;56.558;9.036;2023-07-20T02:30:12;2.40;;;0.98;;
81936;SDS011;71432;56.558;9.036;2023-07-20T02:32:38;2.83;;;0.70;;
81936;SDS011;71432;56.558;9.036;2023-07-20T02:35:04;2.10;;;0.68;;
81936;SDS011;71432;56.558;9.036;2023-07-20T02:37:30;3.22;;;1.20;;
81936;SDS011;71432;56.558;9.036;2023-07-20T02:39:55;1.65;;;0.55;;
81936;SDS011;71432;56.558;9.036;2023-07-20T02:42:21;1.55;;;0.70;;
81936;SDS011;71432;56.558;9.036;2023-07-20T02:44:47;2.97;;;0.57;;
81936;SDS011;71432;56.558;9.036;2023-07-20T02:47:13;3.30;;;0.77;;
81936;SDS011;71432;56.558;9.036;2023-07-20T02:49:38;1.43;;;0.70;;
81936;SDS011;71432;56.558;9.036;2023-07-20T02:52:04;3.90;;;0.80;;
81936;SDS011;71432;56.558;9.036;2023-07-20T02:54:30;2.67;;;0.80;;
81936;SDS011;71432;56.558;9.036;2023-07-20T02:56:55;1.25;;;0.80;;
81936;SDS011;71432;56.558;9.036;2023-07-20T02:59:21;2.15;;;0.85;;
81936;SDS011;71432;56.558;9.036;2023-07-20T03:01:46;2.17;;;0.70;;
81936;SDS011;71432;56.558;9.036;2023-07-20T03:04:11;1.58;;;0.55;;
81936;SDS011;71432;56.558;9.036;2023-07-20T03:06:37;1.00;;;0.50;;
81936;SDS011;71432;56.558;9.036;2023-07-20T03:09:02;2.15;;;0.68;;
81936;SDS011;71432;56.558;9.036;2023-07-20T03:11:28;1.33;;;0.77;;
81936;SDS011;71432;56.558;9.036;2023-07-20T03:13:54;2.67;;;0.82;;
81936;SDS011;71432;56.558;9.036;2023-07-20T03:16:21;1.83;;;0.77;;
81936;SDS011;71432;56.558;9.036;2023-07-20T03:18:46;0.93;;;0.50;;
81936;SDS011;71432;56.558;9.036;2023-07-20T03:21:12;3.35;;;0.60;;
81936;SDS011;71432;56.558;9.036;2023-07-20T03:23:38;1.50;;;0.85;;
81936;SDS011;71432;56.558;9.036;2023-07-20T03:26:06;2.08;;;0.52;;
81936;SDS011;71432;56.558;9.036;2023-07-20T03:28:37;2.10;;;0.60;;
81936;SDS011;71432;56.558;9.036;2023-07-20T03:31:04;1.90;;;0.60;;
81936;SDS011;71432;56.558;9.036;2023-07-20T03:33:30;2.03;;;0.70;;
81936;SDS011;71432;56.558;9.036;2023-07-20T03:38:24;1.23;;;0.65;;
81936;SDS011;71432;56.558;9.036;2023-07-20T03:43:16;0.80;;;0.38;;
81936;SDS011;71432;56.558;9.036;2023-07-20T03:45:42;1.25;;;0.60;;
81936;SDS011;71432;56.558;9.036;2023-07-20T03:48:08;2.53;;;0.57;;
81936;SDS011;71432;56.558;9.036;2023-07-20T03:50:33;1.25;;;0.50;;
81936;SDS011;71432;56.558;9.036;2023-07-20T03:52:58;0.80;;;0.40;;
81936;SDS011;71432;56.558;9.036;2023-07-20T03:55:24;1.08;;;0.50;;
81936;SDS011;71432;56.558;9.036;2023-07-20T03:57:49;1.57;;;0.60;;
81936;SDS011;71432;56.558;9.036;2023-07-20T04:02:41;2.25;;;0.50;;
81936;SDS011;71432;56.558;9.036;2023-07-20T04:05:06;1.98;;;0.60;;
81936;SDS011;71432;56.558;9.036;2023-07-20T04:07:32;1.33;;;0.63;;
81936;SDS011;71432;56.558;9.036;2023-07-20T04:09:57;0.70;;;0.30;;
81936;SDS011;71432;56.558;9.036;2023-07-20T04:12:23;1.60;;;0.50;;
81936;SDS011;71432;56.558;9.036;2023-07-20T04:14:48;1.25;;;0.35;;
81936;SDS011;71432;56.558;9.036;2023-07-20T04:17:13;0.80;;;0.37;;
81936;SDS011;71432;56.558;9.036;2023-07-20T04:19:39;1.13;;;0.52;;
81936;SDS011;71432;56.558;9.036;2023-07-20T04:22:04;2.35;;;0.60;;
81936;SDS011;71432;56.558;9.036;2023-07-20T04:24:29;1.23;;;0.68;;
81936;SDS011;71432;56.558;9.036;2023-07-20T04:26:55;1.65;;;0.68;;
81936;SDS011;71432;56.558;9.036;2023-07-20T04:29:20;2.20;;;0.60;;
81936;SDS011;71432;56.558;9.036;2023-07-20T04:31:45;1.70;;;0.77;;
81936;SDS011;71432;56.558;9.036;2023-07-20T04:34:10;1.73;;;0.60;;
81936;SDS011;71432;56.558;9.036;2023-07-20T04:36:36;1.27;;;0.50;;
81936;SDS011;71432;56.558;9.036;2023-07-20T04:39:01;1.63;;;0.83;;
81936;SDS011;71432;56.558;9.036;2023-07-20T04:41:26;1.55;;;0.52;;
81936;SDS011;71432;56.558;9.036;2023-07-20T04:43:52;1.27;;;0.60;;
81936;SDS011;71432;56.558;9.036;2023-07-20T04:46:17;1.13;;;0.50;;
81936;SDS011;71432;56.558;9.036;2023-07-20T04:51:09;0.63;;;0.33;;
81936;SDS011;71432;56.558;9.036;2023-07-20T04:53:35;2.08;;;0.40;;
81936;SDS011;71432;56.558;9.036;2023-07-20T04:56:00;0.47;;;0.30;;
81936;SDS011;71432;56.558;9.036;2023-07-20T04:58:26;1.27;;;0.40;;
81936;SDS011;71432;56.558;9.036;2023-07-20T05:00:51;1.23;;;0.40;;
81936;SDS011;71432;56.558;9.036;2023-07-20T05:03:17;1.27;;;0.32;;
81936;SDS011;71432;56.558;9.036;2023-07-20T05:05:43;0.55;;;0.40;;
81936;SDS011;71432;56.558;9.036;2023-07-20T05:08:08;1.10;;;0.50;;
81936;SDS011;71432;56.558;9.036;2023-07-20T05:10:34;1.77;;;0.47;;
81936;SDS011;71432;56.558;9.036;2023-07-20T05:12:59;3.20;;;0.47;;
81936;SDS011;71432;56.558;9.036;2023-07-20T05:15:25;1.52;;;0.40;;
81936;SDS011;71432;56.558;9.036;2023-07-20T05:17:50;1.00;;;0.50;;
81936;SDS011;71432;56.558;9.036;2023-07-20T05:20:15;1.73;;;0.50;;
81936;SDS011;71432;56.558;9.036;2023-07-20T05:22:41;1.33;;;0.40;;
81936;SDS011;71432;56.558;9.036;2023-07-20T05:25:07;1.35;;;0.40;;
81936;SDS011;71432;56.558;9.036;2023-07-20T05:27:35;0.68;;;0.38;;
81936;SDS011;71432;56.558;9.036;2023-07-20T05:30:01;2.17;;;0.55;;
81936;SDS011;71432;56.558;9.036;2023-07-20T05:32:27;0.98;;;0.40;;
81936;SDS011;71432;56.558;9.036;2023-07-20T05:34:53;1.90;;;0.35;;
81936;SDS011;71432;56.558;9.036;2023-07-20T05:37:19;2.15;;;0.40;;
81936;SDS011;71432;56.558;9.036;2023-07-20T05:39:44;0.50;;;0.20;;
81936;SDS011;71432;56.558;9.036;2023-07-20T05:42:10;2.10;;;0.40;;
81936;SDS011;71432;56.558;9.036;2023-07-20T05:44:35;0.90;;;0.40;;
81936;SDS011;71432;56.558;9.036;2023-07-20T05:47:00;2.20;;;0.83;;
81936;SDS011;71432;56.558;9.036;2023-07-20T05:49:27;0.60;;;0.40;;
81936;SDS011;71432;56.558;9.036;2023-07-20T05:51:53;0.40;;;0.30;;
81936;SDS011;71432;56.558;9.036;2023-07-20T05:54:19;0.85;;;0.40;;
81936;SDS011;71432;56.558;9.036;2023-07-20T05:56:45;2.33;;;0.40;;
81936;SDS011;71432;56.558;9.036;2023-07-20T05:59:11;0.98;;;0.40;;
81936;SDS011;71432;56.558;9.036;2023-07-20T06:01:36;1.70;;;0.40;;
81936;SDS011;71432;56.558;9.036;2023-07-20T06:04:01;2.45;;;0.45;;
81936;SDS011;71432;56.558;9.036;2023-07-20T06:06:28;0.90;;;0.20;;
81936;SDS011;71432;56.558;9.036;2023-07-20T06:08:53;0.60;;;0.40;;
81936;SDS011;71432;56.558;9.036;2023-07-20T06:11:19;0.75;;;0.20;;
81936;SDS011;71432;56.558;9.036;2023-07-20T06:13:45;1.00;;;0.40;;
81936;SDS011;71432;56.558;9.036;2023-07-20T06:16:10;0.30;;;0.20;;
81936;SDS011;71432;56.558;9.036;2023-07-20T06:18:36;0.60;;;0.40;;
81936;SDS011;71432;56.558;9.036;2023-07-20T06:21:01;0.40;;;0.13;;
81936;SDS011;71432;56.558;9.036;2023-07-20T06:23:27;0.73;;;0.25;;
81936;SDS011;71432;56.558;9.036;2023-07-20T06:25:52;2.15;;;0.40;;
81936;SDS011;71432;56.558;9.036;2023-07-20T06:28:18;1.42;;;0.30;;
81936;SDS011;71432;56.558;9.036;2023-07-20T06:30:43;2.67;;;0.40;;
81936;SDS011;71432;56.558;9.036;2023-07-20T06:33:09;3.42;;;0.60;;
81936;SDS011;71432;56.558;9.036;2023-07-20T06:35:34;1.27;;;0.30;;
81936;SDS011;71432;56.558;9.036;2023-07-20T06:38:00;0.70;;;0.68;;
81936;SDS011;71432;56.558;9.036;2023-07-20T06:40:26;1.42;;;0.25;;
81936;SDS011;71432;56.558;9.036;2023-07-20T06:42:52;0.85;;;0.28;;
81936;SDS011;71432;56.558;9.036;2023-07-20T06:45:17;3.47;;;1.33;;
81936;SDS011;71432;56.558;9.036;2023-07-20T06:47:43;0.65;;;0.20;;
81936;SDS011;71432;56.558;9.036;2023-07-20T06:50:09;1.33;;;0.30;;
81936;SDS011;71432;56.558;9.036;2023-07-20T06:52:35;1.50;;;0.40;;
81936;SDS011;71432;56.558;9.036;2023-07-20T06:55:00;0.52;;;0.30;;
81936;SDS011;71432;56.558;9.036;2023-07-20T06:57:25;2.08;;;0.40;;
81936;SDS011;71432;56.558;9.036;2023-07-20T06:59:51;3.13;;;0.40;;
81936;SDS011;71432;56.558;9.036;2023-07-20T07:02:16;0.80;;;0.30;;
81936;SDS011;71432;56.558;9.036;2023-07-20T07:04:42;0.82;;;0.20;;
81936;SDS011;71432;56.558;9.036;2023-07-20T07:07:07;1.35;;;0.38;;
81936;SDS011;71432;56.558;9.036;2023-07-20T07:09:34;1.00;;;0.32;;
81936;SDS011;71432;56.558;9.036;2023-07-20T07:11:59;1.60;;;0.22;;
81936;SDS011;71432;56.558;9.036;2023-07-20T07:14:25;0.68;;;0.28;;
81936;SDS011;71432;56.558;9.036;2023-07-20T07:16:50;2.47;;;0.30;;
81936;SDS011;71432;56.558;9.036;2023-07-20T07:19:15;0.60;;;0.10;;
81936;SDS011;71432;56.558;9.036;2023-07-20T07:21:40;0.43;;;0.27;;
81936;SDS011;71432;56.558;9.036;2023-07-20T07:24:06;2.13;;;0.30;;
81936;SDS011;71432;56.558;9.036;2023-07-20T07:26:32;6.95;;;0.63;;
81936;SDS011;71432;56.558;9.036;2023-07-20T07:28:58;1.95;;;0.25;;
81936;SDS011;71432;56.558;9.036;2023-07-20T07:31:28;0.63;;;0.25;;
81936;SDS011;71432;56.558;9.036;2023-07-20T07:33:54;2.45;;;0.30;;
81936;SDS011;71432;56.558;9.036;2023-07-20T07:36:19;0.80;;;0.40;;
81936;SDS011;71432;56.558;9.036;2023-07-20T07:38:44;2.80;;;0.32;;
81936;SDS011;71432;56.558;9.036;2023-07-20T07:41:10;7.38;;;0.60;;
81936;SDS011;71432;56.558;9.036;2023-07-20T07:43:35;0.67;;;0.40;;
81936;SDS011;71432;56.558;9.036;2023-07-20T07:46:00;1.08;;;0.25;;
81936;SDS011;71432;56.558;9.036;2023-07-20T07:48:26;2.17;;;0.30;;
81936;SDS011;71432;56.558;9.036;2023-07-20T07:50:53;2.53;;;0.30;;
81936;SDS011;71432;56.558;9.036;2023-07-20T07:53:19;1.00;;;0.10;;
81936;SDS011;71432;56.558;9.036;2023-07-20T07:55:45;2.90;;;0.15;;
81936;SDS011;71432;56.558;9.036;2023-07-20T07:58:12;0.25;;;0.20;;
81936;SDS011;71432;56.558;9.036;2023-07-20T08:00:38;0.52;;;0.20;;
81936;SDS011;71432;56.558;9.036;2023-07-20T08:03:05;0.52;;;0.30;;
81936;SDS011;71432;56.558;9.036;2023-07-20T08:05:31;3.92;;;0.30;;
81936;SDS011;71432;56.558;9.036;2023-07-20T08:07:56;1.30;;;0.43;;
81936;SDS011;71432;56.558;9.036;2023-07-20T08:10:22;3.03;;;0.40;;
81936;SDS011;71432;56.558;9.036;2023-07-20T08:12:47;4.22;;;0.43;;
81936;SDS011;71432;56.558;9.036;2023-07-20T08:15:13;1.23;;;0.40;;
81936;SDS011;71432;56.558;9.036;2023-07-20T08:17:39;4.43;;;0.50;;
81936;SDS011;71432;56.558;9.036;2023-07-20T08:20:05;1.20;;;0.25;;
81936;SDS011;71432;56.558;9.036;2023-07-20T08:22:31;1.58;;;0.30;;
81936;SDS011;71432;56.558;9.036;2023-07-20T08:24:57;2.50;;;0.40;;
81936;SDS011;71432;56.558;9.036;2023-07-20T08:27:22;1.03;;;0.20;;
81936;SDS011;71432;56.558;9.036;2023-07-20T08:29:47;0.90;;;0.13;;
81936;SDS011;71432;56.558;9.036;2023-07-20T08:32:13;1.17;;;0.30;;
81936;SDS011;71432;56.558;9.036;2023-07-20T08:34:39;3.75;;;0.50;;
81936;SDS011;71432;56.558;9.036;2023-07-20T08:37:05;1.50;;;0.28;;
81936;SDS011;71432;56.558;9.036;2023-07-20T08:39:30;4.70;;;0.55;;
81936;SDS011;71432;56.558;9.036;2023-07-20T08:41:55;0.60;;;0.27;;
81936;SDS011;71432;56.558;9.036;2023-07-20T08:44:24;2.08;;;0.73;;
81936;SDS011;71432;56.558;9.036;2023-07-20T08:46:50;1.05;;;0.57;;
81936;SDS011;71432;56.558;9.036;2023-07-20T08:49:17;2.83;;;0.38;;
81936;SDS011;71432;56.558;9.036;2023-07-20T08:54:10;4.68;;;0.20;;
81936;SDS011;71432;56.558;9.036;2023-07-20T08:56:37;1.17;;;0.35;;
81936;SDS011;71432;56.558;9.036;2023-07-20T08:59:05;4.07;;;0.43;;
81936;SDS011;71432;56.558;9.036;2023-07-20T09:01:32;2.50;;;0.40;;
81936;SDS011;71432;56.558;9.036;2023-07-20T09:04:01;2.38;;;0.28;;
81936;SDS011;71432;56.558;9.036;2023-07-20T09:06:26;2.85;;;0.30;;
81936;SDS011;71432;56.558;9.036;2023-07-20T09:08:52;2.80;;;0.40;;
81936;SDS011;71432;56.558;9.036;2023-07-20T09:11:17;3.43;;;0.83;;
81936;SDS011;71432;56.558;9.036;2023-07-20T09:13:42;1.70;;;0.40;;
81936;SDS011;71432;56.558;9.036;2023-07-20T09:16:08;1.50;;;0.68;;
81936;SDS011;71432;56.558;9.036;2023-07-20T09:18:34;1.08;;;0.43;;
81936;SDS011;71432;56.558;9.036;2023-07-20T09:21:03;3.78;;;0.50;;
81936;SDS011;71432;56.558;9.036;2023-07-20T09:25:57;3.22;;;0.80;;
81936;SDS011;71432;56.558;9.036;2023-07-20T09:28:22;2.78;;;0.60;;
81936;SDS011;71432;56.558;9.036;2023-07-20T09:30:48;6.13;;;0.75;;
81936;SDS011;71432;56.558;9.036;2023-07-20T09:33:22;6.23;;;0.70;;
81936;SDS011;71432;56.558;9.036;2023-07-20T09:35:48;15.02;;;1.10;;
81936;SDS011;71432;56.558;9.036;2023-07-20T09:38:14;7.70;;;1.48;;
81936;SDS011;71432;56.558;9.036;2023-07-20T09:40:40;3.42;;;0.98;;
81936;SDS011;71432;56.558;9.036;2023-07-20T09:43:09;4.45;;;0.80;;
81936;SDS011;71432;56.558;9.036;2023-07-20T09:45:35;5.53;;;0.88;;
81936;SDS011;71432;56.558;9.036;2023-07-20T09:48:05;3.47;;;0.40;;
81936;SDS011;71432;56.558;9.036;2023-07-20T09:50:41;4.80;;;0.73;;
81936;SDS011;71432;56.558;9.036;2023-07-20T09:53:09;4.50;;;0.63;;
81936;SDS011;71432;56.558;9.036;2023-07-20T09:55:38;4.47;;;0.70;;
81936;SDS011;71432;56.558;9.036;2023-07-20T09:58:05;2.47;;;0.65;;
81936;SDS011;71432;56.558;9.036;2023-07-20T10:00:32;5.47;;;0.80;;
81936;SDS011;71432;56.558;9.036;2023-07-20T10:02:59;3.58;;;0.50;;
81936;SDS011;71432;56.558;9.036;2023-07-20T10:05:28;3.95;;;1.15;;
81936;SDS011;71432;56.558;9.036;2023-07-20T10:07:58;6.57;;;0.77;;
81936;SDS011;71432;56.558;9.036;2023-07-20T10:10:26;6.57;;;0.70;;
81936;SDS011;71432;56.558;9.036;2023-07-20T10:12:52;2.90;;;0.80;;
81936;SDS011;71432;56.558;9.036;2023-07-20T10:15:23;7.35;;;0.77;;
81936;SDS011;71432;56.558;9.036;2023-07-20T10:17:59;5.63;;;0.77;;
81936;SDS011;71432;56.558;9.036;2023-07-20T10:20:29;5.57;;;0.85;;
81936;SDS011;71432;56.558;9.036;2023-07-20T10:22:56;3.17;;;0.93;;
81936;SDS011;71432;56.558;9.036;2023-07-20T10:25:22;4.07;;;0.70;;
81936;SDS011;71432;56.558;9.036;2023-07-20T10:27:48;6.22;;;0.60;;
81936;SDS011;71432;56.558;9.036;2023-07-20T10:30:14;1.45;;;0.70;;
81936;SDS011;71432;56.558;9.036;2023-07-20T10:32:41;5.72;;;0.73;;
81936;SDS011;71432;56.558;9.036;2023-07-20T10:35:14;7.78;;;1.33;;
81936;SDS011;71432;56.558;9.036;2023-07-20T10:37:50;7.07;;;0.85;;
81936;SDS011;71432;56.558;9.036;2023-07-20T10:43:12;5.43;;;1.20;;
81936;SDS011;71432;56.558;9.036;2023-07-20T10:45:51;6.63;;;1.38;;
81936;SDS011;71432;56.558;9.036;2023-07-20T10:50:44;5.93;;;1.70;;
81936;SDS011;71432;56.558;9.036;2023-07-20T10:55:36;7.43;;;1.48;;
81936;SDS011;71432;56.558;9.036;2023-07-20T10:58:11;5.20;;;1.15;;
81936;SDS011;71432;56.558;9.036;2023-07-20T11:00:58;14.13;;;2.05;;
81936;SDS011;71432;56.558;9.036;2023-07-20T11:03:29;7.03;;;1.85;;
81936;SDS011;71432;56.558;9.036;2023-07-20T11:05:56;6.85;;;1.35;;
81936;SDS011;71432;56.558;9.036;2023-07-20T11:08:38;3.70;;;1.38;;
81936;SDS011;71432;56.558;9.036;2023-07-20T11:11:20;8.43;;;1.60;;
81936;SDS011;71432;56.558;9.036;2023-07-20T11:13:57;6.00;;;1.20;;
81936;SDS011;71432;56.558;9.036;2023-07-20T11:16:33;4.93;;;1.85;;
81936;SDS011;71432;56.558;9.036;2023-07-20T11:19:00;5.15;;;1.85;;
81936;SDS011;71432;56.558;9.036;2023-07-20T11:21:26;5.15;;;1.20;;
81936;SDS011;71432;56.558;9.036;2023-07-20T11:23:52;4.30;;;1.38;;
81936;SDS011;71432;56.558;9.036;2023-07-20T11:26:18;8.32;;;2.13;;
81936;SDS011;71432;56.558;9.036;2023-07-20T11:31:14;5.15;;;1.40;;
81936;SDS011;71432;56.558;9.036;2023-07-20T11:33:41;8.73;;;1.40;;
81936;SDS011;71432;56.558;9.036;2023-07-20T11:36:08;7.18;;;1.40;;
81936;SDS011;71432;56.558;9.036;2023-07-20T11:38:33;4.13;;;1.42;;
81936;SDS011;71432;56.558;9.036;2023-07-20T11:40:59;6.70;;;1.00;;
81936;SDS011;71432;56.558;9.036;2023-07-20T11:43:24;7.88;;;1.38;;
81936;SDS011;71432;56.558;9.036;2023-07-20T11:45:51;5.55;;;1.13;;
81936;SDS011;71432;56.558;9.036;2023-07-20T11:48:16;3.30;;;0.80;;
81936;SDS011;71432;56.558;9.036;2023-07-20T11:50:42;4.88;;;1.15;;
81936;SDS011;71432;56.558;9.036;2023-07-20T11:53:07;5.82;;;1.20;;
81936;SDS011;71432;56.558;9.036;2023-07-20T11:55:33;5.00;;;1.25;;
81936;SDS011;71432;56.558;9.036;2023-07-20T12:00:27;4.80;;;1.20;;
81936;SDS011;71432;56.558;9.036;2023-07-20T12:02:53;5.85;;;1.13;;
81936;SDS011;71432;56.558;9.036;2023-07-20T12:05:18;3.95;;;0.88;;
81936;SDS011;71432;56.558;9.036;2023-07-20T12:07:44;5.20;;;1.55;;
81936;SDS011;71432;56.558;9.036;2023-07-20T12:10:11;5.93;;;1.30;;
81936;SDS011;71432;56.558;9.036;2023-07-20T12:12:37;2.50;;;0.70;;
81936;SDS011;71432;56.558;9.036;2023-07-20T12:15:25;1.60;;;0.82;;
81936;SDS011;71432;56.558;9.036;2023-07-20T12:17:55;3.97;;;1.70;;
81936;SDS011;71432;56.558;9.036;2023-07-20T12:20:34;3.03;;;1.05;;
81936;SDS011;71432;56.558;9.036;2023-07-20T12:25:33;3.72;;;0.80;;
81936;SDS011;71432;56.558;9.036;2023-07-20T12:28:04;3.08;;;0.88;;
81936;SDS011;71432;56.558;9.036;2023-07-20T12:30:30;4.25;;;1.20;;
81936;SDS011;71432;56.558;9.036;2023-07-20T12:32:56;3.50;;;1.33;;
81936;SDS011;71432;56.558;9.036;2023-07-20T12:35:21;5.23;;;1.40;;
81936;SDS011;71432;56.558;9.036;2023-07-20T12:37:46;4.88;;;1.20;;
81936;SDS011;71432;56.558;9.036;2023-07-20T12:40:14;3.38;;;0.80;;
81936;SDS011;71432;56.558;9.036;2023-07-20T12:42:39;2.97;;;0.80;;
81936;SDS011;71432;56.558;9.036;2023-07-20T12:45:05;3.60;;;1.47;;
81936;SDS011;71432;56.558;9.036;2023-07-20T12:47:31;6.05;;;1.77;;
81936;SDS011;71432;56.558;9.036;2023-07-20T12:49:56;3.15;;;0.75;;
81936;SDS011;71432;56.558;9.036;2023-07-20T12:52:21;8.67;;;1.10;;
81936;SDS011;71432;56.558;9.036;2023-07-20T12:54:46;5.57;;;1.03;;
81936;SDS011;71432;56.558;9.036;2023-07-20T12:57:12;4.53;;;1.03;;
81936;SDS011;71432;56.558;9.036;2023-07-20T12:59:37;6.97;;;1.20;;
81936;SDS011;71432;56.558;9.036;2023-07-20T13:02:03;3.28;;;1.00;;
81936;SDS011;71432;56.558;9.036;2023-07-20T13:04:28;5.75;;;0.73;;
81936;SDS011;71432;56.558;9.036;2023-07-20T13:06:54;6.65;;;1.10;;
81936;SDS011;71432;56.558;9.036;2023-07-20T13:09:19;4.90;;;0.90;;
81936;SDS011;71432;56.558;9.036;2023-07-20T13:11:45;5.45;;;0.70;;
81936;SDS011;71432;56.558;9.036;2023-07-20T13:14:11;6.32;;;1.33;;
81936;SDS011;71432;56.558;9.036;2023-07-20T13:16:36;7.95;;;0.98;;
81936;SDS011;71432;56.558;9.036;2023-07-20T13:19:02;3.03;;;1.00;;
81936;SDS011;71432;56.558;9.036;2023-07-20T13:21:27;2.22;;;0.88;;
81936;SDS011;71432;56.558;9.036;2023-07-20T13:23:53;7.03;;;0.82;;
81936;SDS011;71432;56.558;9.036;2023-07-20T13:26:18;4.70;;;0.95;;
81936;SDS011;71432;56.558;9.036;2023-07-20T13:28:44;3.70;;;0.90;;
81936;SDS011;71432;56.558;9.036;2023-07-20T13:31:09;4.17;;;1.07;;
81936;SDS011;71432;56.558;9.036;2023-07-20T13:33:35;4.28;;;0.80;;
81936;SDS011;71432;56.558;9.036;2023-07-20T13:36:01;9.57;;;0.80;;
81936;SDS011;71432;56.558;9.036;2023-07-20T13:38:27;6.30;;;0.80;;
81936;SDS011;71432;56.558;9.036;2023-07-20T13:40:52;3.58;;;0.80;;
81936;SDS011;71432;56.558;9.036;2023-07-20T13:43:17;4.28;;;0.98;;
81936;SDS011;71432;56.558;9.036;2023-07-20T13:45:43;3.70;;;0.77;;
81936;SDS011;71432;56.558;9.036;2023-07-20T13:48:08;5.75;;;0.98;;
81936;SDS011;71432;56.558;9.036;2023-07-20T13:50:33;2.72;;;0.77;;
81936;SDS011;71432;56.558;9.036;2023-07-20T13:52:59;4.07;;;0.70;;
81936;SDS011;71432;56.558;9.036;2023-07-20T13:55:24;2.53;;;1.05;;
81936;SDS011;71432;56.558;9.036;2023-07-20T13:57:50;3.40;;;0.90;;
81936;SDS011;71432;56.558;9.036;2023-07-20T14:00:15;4.32;;;0.85;;
81936;SDS011;71432;56.558;9.036;2023-07-20T14:02:41;6.93;;;1.15;;
81936;SDS011;71432;56.558;9.036;2023-07-20T14:05:07;6.13;;;0.75;;
81936;SDS011;71432;56.558;9.036;2023-07-20T14:07:33;3.47;;;0.77;;
81936;SDS011;71432;56.558;9.036;2023-07-20T14:09:58;7.85;;;0.75;;
81936;SDS011;71432;56.558;9.036;2023-07-20T14:12:24;4.55;;;1.23;;
81936;SDS011;71432;56.558;9.036;2023-07-20T14:14:49;4.90;;;1.08;;
81936;SDS011;71432;56.558;9.036;2023-07-20T14:17:15;4.13;;;1.43;;
81936;SDS011;71432;56.558;9.036;2023-07-20T14:19:40;3.27;;;1.10;;
81936;SDS011;71432;56.558;9.036;2023-07-20T14:22:05;2.67;;;1.00;;
81936;SDS011;71432;56.558;9.036;2023-07-20T14:24:31;2.78;;;1.00;;
81936;SDS011;71432;56.558;9.036;2023-07-20T14:26:56;2.03;;;0.63;;
81936;SDS011;71432;56.558;9.036;2023-07-20T14:29:22;3.90;;;0.67;;
81936;SDS011;71432;56.558;9.036;2023-07-20T14:31:47;4.43;;;0.93;;
81936;SDS011;71432;56.558;9.036;2023-07-20T14:34:17;5.35;;;1.20;;
81936;SDS011;71432;56.558;9.036;2023-07-20T14:36:44;2.15;;;0.68;;
81936;SDS011;71432;56.558;9.036;2023-07-20T14:39:09;5.18;;;1.00;;
81936;SDS011;71432;56.558;9.036;2023-07-20T14:41:34;2.97;;;0.80;;
81936;SDS011;71432;56.558;9.036;2023-07-20T14:44:00;5.50;;;1.08;;
81936;SDS011;71432;56.558;9.036;2023-07-20T14:46:25;7.07;;;1.13;;
81936;SDS011;71432;56.558;9.036;2023-07-20T14:48:50;3.75;;;1.08;;
81936;SDS011;71432;56.558;9.036;2023-07-20T14:51:17;9.35;;;1.13;;
81936;SDS011;71432;56.558;9.036;2023-07-20T14:53:42;3.10;;;0.70;;
81936;SDS011;71432;56.558;9.036;2023-07-20T14:56:07;3.43;;;1.03;;
81936;SDS011;71432;56.558;9.036;2023-07-20T14:58:33;5.18;;;0.98;;
81936;SDS011;71432;56.558;9.036;2023-07-20T15:00:58;8.43;;;0.90;;
81936;SDS011;71432;56.558;9.036;2023-07-20T15:03:23;4.67;;;1.10;;
81936;SDS011;71432;56.558;9.036;2023-07-20T15:05:48;3.67;;;1.00;;
81936;SDS011;71432;56.558;9.036;2023-07-20T15:08:15;4.75;;;1.15;;
81936;SDS011;71432;56.558;9.036;2023-07-20T15:10:41;5.20;;;1.05;;
81936;SDS011;71432;56.558;9.036;2023-07-20T15:13:07;3.72;;;0.98;;
81936;SDS011;71432;56.558;9.036;2023-07-20T15:15:32;8.13;;;4.28;;
81936;SDS011;71432;56.558;9.036;2023-07-20T15:17:57;11.47;;;3.27;;
81936;SDS011;71432;56.558;9.036;2023-07-20T15:20:22;11.67;;;3.03;;
81936;SDS011;71432;56.558;9.036;2023-07-20T15:22:48;12.38;;;2.75;;
81936;SDS011;71432;56.558;9.036;2023-07-20T15:25:13;13.97;;;3.03;;